Time;durP1;ratioP1;P1;durP2;ratioP2;P2;SDS_P1;SDS_P2;PMS_P1;PMS_P2;Temp;Humidity;BMP_temperature;BMP_pressure;BME280_temperature;BME280_humidity;BME280_pressure;Samples;Min_cycle;Max_cycle;Signal;HPM_P1;HPM_P2
2021/03/21 00:01:48;;;;;;;5.50;3.40;;;2.70;55.00;;;;;;5055613;28;20031;-64
2021/03/21 00:04:16;;;;;;;4.82;3.30;;;2.70;54.90;;;;;;5056480;28;20028;-64
2021/03/21 00:06:43;;;;;;;5.30;3.58;;;2.70;54.90;;;;;;5057074;28;20033;-64
2021/03/21 00:09:10;;;;;;;4.28;3.33;;;2.70;54.90;;;;;;5057828;28;20500;-64
2021/03/21 00:11:39;;;;;;;4.97;3.63;;;2.70;55.70;;;;;;5055150;28;20120;-64
2021/03/21 00:14:05;;;;;;;5.85;3.63;;;2.70;55.00;;;;;;5056632;28;20021;-64
2021/03/21 00:16:32;;;;;;;5.13;3.50;;;2.70;55.00;;;;;;5056310;28;20546;-64
2021/03/21 00:19:01;;;;;;;4.30;3.40;;;2.70;55.00;;;;;;5057558;28;20044;-64
2021/03/21 00:21:29;;;;;;;5.15;3.22;;;2.70;54.90;;;;;;5056170;28;20029;-65
2021/03/21 00:23:55;;;;;;;6.13;3.30;;;2.70;54.90;;;;;;5056019;28;20079;-64
2021/03/21 00:26:23;;;;;;;4.70;3.42;;;2.70;55.00;;;;;;5056994;28;20053;-64
2021/03/21 00:28:49;;;;;;;6.13;3.58;;;2.70;54.90;;;;;;5056174;28;20112;-64
2021/03/21 00:31:21;;;;;;;4.78;3.22;;;2.70;54.90;;;;;;5057842;28;20032;-64
2021/03/21 00:33:49;;;;;;;5.50;3.20;;;2.70;54.90;;;;;;5057214;28;20516;-64
2021/03/21 00:36:20;;;;;;;4.53;3.42;;;2.70;54.80;;;;;;5056540;28;20059;-64
2021/03/21 00:38:50;;;;;;;6.03;3.42;;;2.60;54.80;;;;;;5055324;28;20060;-64
2021/03/21 00:41:22;;;;;;;5.85;3.67;;;2.70;54.80;;;;;;5057289;28;20504;-64
2021/03/21 00:43:53;;;;;;;6.63;3.50;;;2.70;54.90;;;;;;5056984;28;20040;-64
2021/03/21 00:46:24;;;;;;;6.00;3.50;;;2.70;54.90;;;;;;5055855;28;20025;-64
2021/03/21 00:48:54;;;;;;;5.68;3.28;;;2.70;55.00;;;;;;5055080;28;20507;-65
2021/03/21 00:51:20;;;;;;;4.68;3.50;;;2.70;55.10;;;;;;5057229;28;20112;-65
2021/03/21 00:53:46;;;;;;;5.70;3.78;;;2.70;55.20;;;;;;5057560;28;20568;-64
2021/03/21 00:56:42;;;;;;;5.88;3.67;;;2.70;55.20;;;;;;5054526;28;20555;-64
2021/03/21 00:59:11;;;;;;;4.10;3.40;;;2.60;55.00;;;;;;5043713;28;20036;-64
2021/03/21 01:01:37;;;;;;;6.18;3.10;;;2.70;55.30;;;;;;5045762;28;20029;-63
2021/03/21 01:04:06;;;;;;;6.07;3.63;;;2.70;55.40;;;;;;5050131;28;20040;-64
2021/03/21 01:06:34;;;;;;;5.18;3.63;;;2.70;55.30;;;;;;5051440;28;20036;-64
2021/03/21 01:09:10;;;;;;;5.10;3.60;;;2.60;55.20;;;;;;5055797;28;20025;-63
2021/03/21 01:11:37;;;;;;;5.28;3.25;;;2.60;55.20;;;;;;5044362;28;20451;-64
2021/03/21 01:14:09;;;;;;;4.55;3.30;;;2.60;55.40;;;;;;5052717;28;20044;-64
2021/03/21 01:16:41;;;;;;;7.43;3.53;;;2.60;55.50;;;;;;5052902;28;20065;-64
2021/03/21 01:19:19;;;;;;;7.47;4.00;;;2.70;55.60;;;;;;5050706;28;20033;-64
2021/03/21 01:21:47;;;;;;;4.55;3.53;;;2.60;55.60;;;;;;5053163;28;20029;-64
2021/03/21 01:24:17;;;;;;;5.15;3.80;;;2.60;55.80;;;;;;5053838;28;20037;-64
2021/03/21 01:26:43;;;;;;;10.30;3.55;;;2.60;55.70;;;;;;5050706;28;20041;-64
2021/03/21 01:29:09;;;;;;;6.75;3.83;;;2.60;55.80;;;;;;5054299;28;20029;-65
2021/03/21 01:31:37;;;;;;;7.18;3.90;;;2.60;55.90;;;;;;5053340;28;20127;-64
2021/03/21 01:34:05;;;;;;;5.07;3.80;;;2.60;55.90;;;;;;5050441;28;20025;-64
2021/03/21 01:36:39;;;;;;;6.47;3.95;;;2.60;55.90;;;;;;5052038;28;20064;-64
2021/03/21 01:39:18;;;;;;;6.65;3.78;;;2.60;55.80;;;;;;5055609;28;20068;-64
2021/03/21 01:41:44;;;;;;;7.22;3.92;;;2.60;55.90;;;;;;5054807;28;20033;-64
2021/03/21 01:44:18;;;;;;;6.30;4.18;;;2.50;55.90;;;;;;5054918;28;20466;-64
2021/03/21 01:46:56;;;;;;;5.07;3.50;;;2.50;55.80;;;;;;5053741;28;20029;-65
2021/03/21 01:49:51;;;;;;;5.07;3.60;;;2.60;55.90;;;;;;5053638;28;20087;-64
2021/03/21 01:52:41;;;;;;;7.38;4.18;;;2.50;55.80;;;;;;5051953;28;20037;-66
2021/03/21 01:55:14;;;;;;;6.93;3.90;;;2.60;56.00;;;;;;5057300;28;20552;-66
2021/03/21 01:57:44;;;;;;;6.73;4.40;;;2.60;56.10;;;;;;5056351;28;20120;-65
2021/03/21 02:00:15;;;;;;;7.82;4.00;;;2.60;56.10;;;;;;5056026;28;20416;-67
2021/03/21 02:02:43;;;;;;;6.85;3.80;;;2.60;55.90;;;;;;5055848;28;20118;-66
2021/03/21 02:05:09;;;;;;;6.75;4.80;;;2.60;56.00;;;;;;5059788;28;20032;-66
2021/03/21 02:07:43;;;;;;;5.55;4.07;;;2.60;56.10;;;;;;5052020;28;20033;-65
2021/03/21 02:10:18;;;;;;;5.88;3.63;;;2.60;56.00;;;;;;5039907;28;20033;-65
2021/03/21 02:12:55;;;;;;;6.32;4.10;;;2.70;56.20;;;;;;5051304;28;20048;-64
2021/03/21 02:15:36;;;;;;;5.72;4.30;;;2.70;56.00;;;;;;5051197;28;20530;-64
2021/03/21 02:18:13;;;;;;;5.28;3.72;;;2.70;56.00;;;;;;5057441;28;20047;-64
2021/03/21 02:21:08;;;;;;;5.97;4.32;;;2.70;56.00;;;;;;5058161;28;20064;-64
2021/03/21 02:24:11;;;;;;;5.65;3.90;;;2.60;55.90;;;;;;5051255;28;20044;-65
2021/03/21 02:26:54;;;;;;;5.72;3.95;;;2.70;56.00;;;;;;5050669;28;20512;-64
2021/03/21 02:29:42;;;;;;;6.97;4.47;;;2.70;56.10;;;;;;5053689;28;20523;-64
2021/03/21 02:32:17;;;;;;;5.68;4.18;;;2.70;56.00;;;;;;5053938;28;20033;-64
2021/03/21 02:35:17;;;;;;;8.10;4.10;;;2.70;56.20;;;;;;5053372;28;20045;-64
2021/03/21 02:38:03;;;;;;;6.65;3.90;;;2.70;56.00;;;;;;5057662;28;20055;-64
2021/03/21 02:40:39;;;;;;;6.97;3.80;;;2.60;56.00;;;;;;5056540;28;20505;-64
2021/03/21 02:43:31;;;;;;;5.32;4.15;;;2.60;56.20;;;;;;5040354;28;20048;-64
2021/03/21 02:46:06;;;;;;;7.13;3.88;;;2.60;56.90;;;;;;5052176;28;20271;-64
2021/03/21 02:48:42;;;;;;;5.97;4.13;;;2.60;56.30;;;;;;5057310;28;20033;-63
2021/03/21 02:51:29;;;;;;;7.05;3.83;;;2.50;56.40;;;;;;5056559;28;20032;-65
2021/03/21 02:54:22;;;;;;;5.93;3.92;;;2.60;56.40;;;;;;5058140;28;20032;-64
2021/03/21 02:56:54;;;;;;;6.88;3.53;;;2.60;56.40;;;;;;5055782;28;20049;-65
2021/03/21 02:59:28;;;;;;;4.75;3.55;;;2.60;56.60;;;;;;5055995;28;20108;-64
2021/03/21 03:02:06;;;;;;;5.90;4.00;;;2.60;56.50;;;;;;5055416;28;20110;-64
2021/03/21 03:04:42;;;;;;;5.07;3.50;;;2.60;56.60;;;;;;5053803;28;20037;-64
2021/03/21 03:07:30;;;;;;;6.97;3.95;;;2.60;56.70;;;;;;5055741;28;20029;-64
2021/03/21 03:10:10;;;;;;;4.75;3.70;;;2.60;56.50;;;;;;5058746;28;20048;-64
2021/03/21 03:12:44;;;;;;;5.32;4.07;;;2.60;56.50;;;;;;5050618;28;20029;-64
2021/03/21 03:15:19;;;;;;;7.28;4.07;;;2.60;56.60;;;;;;5052996;28;20581;-64
2021/03/21 03:18:07;;;;;;;;;;;2.60;56.60;;;;;;5056483;28;20028;-64
2021/03/21 03:20:52;;;;;;;5.20;3.75;;;2.70;56.60;;;;;;5051787;28;19919;-64
2021/03/21 03:23:29;;;;;;;5.45;3.58;;;2.60;56.60;;;;;;5054209;28;22190;-64
2021/03/21 03:28:37;;;;;;;5.00;3.95;;;2.60;56.80;;;;;;5056021;22;20069;-64
2021/03/21 03:31:15;;;;;;;5.80;4.15;;;2.60;56.90;;;;;;4975023;28;20034;-65
2021/03/21 03:33:41;;;;;;;6.45;4.10;;;2.60;57.10;;;;;;4973325;28;20512;-65
2021/03/21 03:36:13;;;;;;;5.82;3.85;;;2.50;57.10;;;;;;4976858;28;20117;-62
2021/03/21 03:38:45;;;;;;;6.40;4.32;;;2.50;57.10;;;;;;4971791;28;20039;-64
2021/03/21 03:41:23;;;;;;;5.93;4.05;;;2.50;57.30;;;;;;4973925;28;20047;-64
2021/03/21 03:44:17;;;;;;;5.40;3.83;;;2.50;57.40;;;;;;4975323;28;20386;-65
2021/03/21 03:47:09;;;;;;;6.20;4.13;;;2.50;57.40;;;;;;4971688;28;20038;-64
2021/03/21 03:50:01;;;;;;;6.43;4.30;;;2.50;57.50;;;;;;4973831;28;20035;-64
2021/03/21 03:52:53;;;;;;;4.75;3.92;;;2.50;57.50;;;;;;4959762;28;20125;-64
2021/03/21 03:55:53;;;;;;;6.22;4.32;;;2.50;57.50;;;;;;4974877;28;20089;-63
2021/03/21 03:58:28;;;;;;;78.07;28.00;;;2.50;57.70;;;;;;4974720;28;20037;-64
2021/03/21 04:01:13;;;;;;;13.68;7.72;;;2.50;57.70;;;;;;4972071;28;20034;-65
2021/03/21 04:03:47;;;;;;;40.35;19.90;;;2.50;57.70;;;;;;4975910;28;20030;-64
2021/03/21 04:06:22;;;;;;;75.53;35.80;;;2.50;57.70;;;;;;4973696;28;20093;-64
2021/03/21 04:09:29;;;;;;;54.63;24.48;;;2.50;57.60;;;;;;4976805;28;20055;-64
2021/03/21 04:12:03;;;;;;;74.55;30.60;;;2.60;57.70;;;;;;4950256;28;20043;-64
2021/03/21 04:15:14;;;;;;;18.35;10.48;;;2.60;57.70;;;;;;4956488;28;20047;-64
2021/03/21 04:18:23;;;;;;;23.25;11.95;;;2.60;57.60;;;;;;4955295;28;20379;-63
2021/03/21 04:21:03;;;;;;;8.63;5.80;;;2.60;57.70;;;;;;4959493;28;20509;-63
2021/03/21 04:23:40;;;;;;;8.30;5.00;;;2.60;57.70;;;;;;4959498;28;20046;-62
2021/03/21 04:26:12;;;;;;;8.95;5.90;;;2.60;57.70;;;;;;4958915;28;20031;-62
2021/03/21 04:28:46;;;;;;;14.27;8.27;;;2.60;57.70;;;;;;4958381;28;20062;-63
2021/03/21 04:31:17;;;;;;;10.68;6.20;;;2.60;58.00;;;;;;4960695;28;20070;-61
2021/03/21 04:33:47;;;;;;;6.47;4.32;;;2.50;57.70;;;;;;4959987;28;20140;-63
2021/03/21 04:36:28;;;;;;;16.50;8.82;;;2.50;57.80;;;;;;4973627;28;20046;-64
2021/03/21 04:39:18;;;;;;;25.95;13.13;;;2.50;57.80;;;;;;4958043;28;20042;-64
2021/03/21 04:41:49;;;;;;;17.70;8.48;;;2.60;57.90;;;;;;4951224;28;20513;-64
2021/03/21 04:44:44;;;;;;;9.38;5.72;;;2.50;57.90;;;;;;4960251;28;20095;-64
2021/03/21 04:47:15;;;;;;;12.13;6.07;;;2.60;57.90;;;;;;4957501;28;20031;-64
2021/03/21 04:49:43;;;;;;;9.15;5.63;;;2.50;57.90;;;;;;4960162;28;20528;-64
2021/03/21 04:52:28;;;;;;;8.93;5.57;;;2.60;57.90;;;;;;4960608;28;20162;-64
2021/03/21 04:54:59;;;;;;;9.43;5.43;;;2.50;57.80;;;;;;4960092;28;20554;-63
2021/03/21 04:57:45;;;;;;;7.00;4.90;;;2.60;57.90;;;;;;4960113;28;20039;-64
2021/03/21 05:00:24;;;;;;;9.13;5.80;;;2.60;57.90;;;;;;4958568;28;20030;-64
2021/03/21 05:03:01;;;;;;;6.95;4.35;;;2.60;58.00;;;;;;4959875;28;20034;-64
2021/03/21 05:05:42;;;;;;;6.93;4.93;;;2.60;57.90;;;;;;4959912;28;20031;-63
2021/03/21 05:08:11;;;;;;;8.13;4.75;;;2.60;57.90;;;;;;4959750;28;20054;-64
2021/03/21 05:10:54;;;;;;;9.23;6.30;;;2.60;57.90;;;;;;4970885;28;20154;-64
2021/03/21 05:13:42;;;;;;;6.80;4.38;;;2.60;58.00;;;;;;4958890;28;20520;-64
2021/03/21 05:16:44;;;;;;;7.55;5.47;;;2.60;58.70;;;;;;4957964;28;20038;-63
2021/03/21 05:19:36;;;;;;;7.55;4.60;;;2.60;58.10;;;;;;4951448;28;20027;-64
2021/03/21 05:22:12;;;;;;;6.38;4.45;;;2.60;58.30;;;;;;4960738;28;20038;-64
2021/03/21 05:24:42;;;;;;;8.88;5.35;;;2.70;58.30;;;;;;4959318;28;20078;-64
2021/03/21 05:27:28;;;;;;;13.55;8.88;;;2.70;58.10;;;;;;4960266;28;20598;-64
2021/03/21 05:30:16;;;;;;;8.27;5.50;;;2.70;58.10;;;;;;4959363;28;20062;-64
2021/03/21 05:32:45;;;;;;;12.55;7.65;;;2.70;58.10;;;;;;4963604;28;20122;-64
2021/03/21 05:35:19;;;;;;;8.77;5.97;;;2.80;58.20;;;;;;4963166;28;20635;-64
2021/03/21 05:38:17;;;;;;;7.22;4.85;;;2.70;58.00;;;;;;4961446;28;20078;-64
2021/03/21 05:41:10;;;;;;;6.93;5.05;;;2.80;57.90;;;;;;4960186;28;20035;-64
2021/03/21 05:44:05;;;;;;;6.28;4.43;;;2.80;58.00;;;;;;4963491;28;20141;-64
2021/03/21 05:47:12;;;;;;;6.78;4.32;;;2.70;58.00;;;;;;4961952;28;20031;-63
2021/03/21 05:49:55;;;;;;;6.13;4.30;;;2.80;57.90;;;;;;4943423;28;20126;-63
2021/03/21 05:53:05;;;;;;;5.88;4.03;;;2.70;57.90;;;;;;4962650;28;20050;-64
2021/03/21 05:55:54;;;;;;;9.05;4.82;;;2.70;57.90;;;;;;4956126;28;20031;-64
2021/03/21 05:58:46;;;;;;;14.13;5.72;;;2.70;57.80;;;;;;4961765;28;20062;-64
2021/03/21 06:01:41;;;;;;;186.75;45.13;;;2.70;57.80;;;;;;4962426;28;20035;-64
2021/03/21 06:04:19;;;;;;;14.95;7.50;;;2.60;57.80;;;;;;4961015;28;20622;-64
2021/03/21 06:07:36;;;;;;;10.40;5.00;;;2.60;57.90;;;;;;4961183;28;20042;-64
2021/03/21 06:10:30;;;;;;;6.80;4.53;;;2.70;57.90;;;;;;4923291;29;20035;-64
2021/03/21 06:13:14;;;;;;;6.07;4.20;;;2.60;57.80;;;;;;4934726;29;20091;-63
2021/03/21 06:16:08;;;;;;;13.98;8.18;;;2.60;57.90;;;;;;4969427;28;20046;-63
2021/03/21 06:18:44;;;;;;;9.30;5.53;;;2.60;57.90;;;;;;4975262;28;20113;-64
2021/03/21 06:21:56;;;;;;;6.43;4.28;;;2.60;57.90;;;;;;4978209;28;20870;-64
2021/03/21 06:24:41;;;;;;;8.57;5.00;;;2.70;58.00;;;;;;4950729;28;20030;-64
2021/03/21 06:27:09;;;;;;;7.65;5.00;;;2.70;58.00;;;;;;4976512;28;20058;-62
2021/03/21 06:30:09;;;;;;;7.72;5.00;;;2.70;58.70;;;;;;4975487;28;20043;-63
2021/03/21 06:32:51;;;;;;;7.25;4.78;;;2.70;57.90;;;;;;4966338;28;20406;-63
2021/03/21 06:35:51;;;;;;;15.20;9.13;;;2.80;57.90;;;;;;4971918;28;20059;-64
2021/03/21 06:38:41;;;;;;;8.27;5.70;;;2.80;57.90;;;;;;4957245;28;20134;-64
2021/03/21 06:41:29;;;;;;;25.85;14.93;;;2.80;58.00;;;;;;4968008;28;20031;-64
2021/03/21 06:44:20;;;;;;;18.05;10.85;;;2.90;58.00;;;;;;4969322;28;20560;-64
2021/03/21 06:47:25;;;;;;;12.48;8.10;;;2.90;58.10;;;;;;4934976;28;20070;-63
2021/03/21 06:50:11;;;;;;;12.25;8.23;;;3.00;57.90;;;;;;4938337;28;20591;-64
2021/03/21 06:52:39;;;;;;;7.57;5.10;;;3.00;57.70;;;;;;4974076;28;20037;-64
2021/03/21 06:55:36;;;;;;;11.95;7.25;;;3.00;57.70;;;;;;4976381;28;20034;-64
2021/03/21 06:58:10;;;;;;;29.55;12.43;;;3.00;57.20;;;;;;4977965;28;20030;-63
2021/03/21 07:01:00;;;;;;;14.43;7.63;;;3.10;57.40;;;;;;4970622;28;20027;-65
2021/03/21 07:03:54;;;;;;;12.95;7.25;;;3.10;57.10;;;;;;4949431;28;20065;-63
2021/03/21 07:07:01;;;;;;;7.47;4.57;;;3.10;57.30;;;;;;4951358;28;20046;-64
2021/03/21 07:09:48;;;;;;;6.78;4.10;;;3.10;57.20;;;;;;4933370;28;20157;-63
2021/03/21 07:12:41;;;;;;;6.40;4.53;;;3.10;57.20;;;;;;4955795;28;20039;-64
2021/03/21 07:15:39;;;;;;;7.40;5.22;;;3.10;56.90;;;;;;4953496;28;20134;-65
2021/03/21 07:18:13;;;;;;;13.05;7.70;;;3.10;57.10;;;;;;4946960;28;20093;-63
2021/03/21 07:21:08;;;;;;;11.68;8.25;;;3.10;57.10;;;;;;4967125;28;20066;-64
2021/03/21 07:23:57;;;;;;;14.07;8.10;;;3.10;56.90;;;;;;4955188;28;20046;-64
2021/03/21 07:26:49;;;;;;;10.57;7.00;;;3.20;57.30;;;;;;4955199;28;20522;-64
2021/03/21 07:29:20;;;;;;;6.18;4.32;;;3.20;57.30;;;;;;4954569;28;20101;-63
2021/03/21 07:32:13;;;;;;;12.45;7.13;;;3.20;57.40;;;;;;4959682;28;20365;-64
2021/03/21 07:34:45;;;;;;;8.18;5.75;;;3.30;57.20;;;;;;4956686;28;20042;-63
2021/03/21 07:37:36;;;;;;;7.22;5.40;;;3.30;57.30;;;;;;4953602;28;20031;-64
2021/03/21 07:40:29;;;;;;;5.72;4.38;;;3.30;57.00;;;;;;4951378;28;20578;-64
2021/03/21 07:43:06;;;;;;;5.50;4.57;;;3.30;56.80;;;;;;4959058;28;20027;-63
2021/03/21 07:45:33;;;;;;;10.30;6.30;;;3.30;57.00;;;;;;4958187;28;20591;-62
2021/03/21 07:48:05;;;;;;;8.13;4.65;;;3.40;57.30;;;;;;4958489;28;20045;-64
2021/03/21 07:50:43;;;;;;;5.53;4.15;;;3.40;57.10;;;;;;4967029;28;20041;-64
2021/03/21 07:53:24;;;;;;;8.30;5.38;;;3.40;57.10;;;;;;4969687;28;20563;-64
2021/03/21 07:56:14;;;;;;;8.00;5.95;;;3.40;57.10;;;;;;4975060;28;20034;-63
2021/03/21 07:58:56;;;;;;;8.30;4.93;;;3.40;57.10;;;;;;4958068;28;20031;-63
2021/03/21 08:01:22;;;;;;;8.95;4.85;;;3.40;56.90;;;;;;4973418;28;20145;-64
2021/03/21 08:03:56;;;;;;;7.43;4.70;;;3.40;57.10;;;;;;4956082;28;20034;-63
2021/03/21 08:06:39;;;;;;;7.40;5.30;;;3.50;57.10;;;;;;4958093;28;20034;-64
2021/03/21 08:09:18;;;;;;;7.50;5.55;;;3.50;57.00;;;;;;4956128;28;20062;-64
2021/03/21 08:11:59;;;;;;;10.52;5.22;;;3.60;57.20;;;;;;4954741;28;20640;-61
2021/03/21 08:14:30;;;;;;;10.05;7.18;;;3.60;57.10;;;;;;4958420;28;20047;-64
2021/03/21 08:17:01;;;;;;;13.05;8.80;;;3.60;57.00;;;;;;4952790;28;20054;-63
2021/03/21 08:19:31;;;;;;;13.27;8.45;;;3.70;57.10;;;;;;4957836;28;20039;-64
2021/03/21 08:21:59;;;;;;;7.18;4.95;;;3.70;57.10;;;;;;4968452;28;20035;-65
2021/03/21 08:24:30;;;;;;;8.00;5.38;;;3.70;56.90;;;;;;4954734;28;20113;-64
2021/03/21 08:27:01;;;;;;;9.45;6.68;;;3.70;56.60;;;;;;4958672;28;20207;-64
2021/03/21 08:29:28;;;;;;;31.55;15.43;;;3.80;56.70;;;;;;4954135;28;20045;-65
2021/03/21 08:32:11;;;;;;;13.77;9.13;;;3.80;56.70;;;;;;4957332;28;20521;-65
2021/03/21 08:34:42;;;;;;;12.55;7.28;;;3.80;56.30;;;;;;4974556;28;20063;-64
2021/03/21 08:37:32;;;;;;;11.32;7.60;;;3.80;56.30;;;;;;4977061;28;20043;-65
2021/03/21 08:40:23;;;;;;;7.18;4.63;;;3.90;56.20;;;;;;4987796;28;20062;-64
2021/03/21 08:42:56;;;;;;;8.65;6.57;;;3.90;56.20;;;;;;4975810;28;20035;-65
2021/03/21 08:45:24;;;;;;;9.35;6.32;;;3.90;56.40;;;;;;4968416;28;20068;-64
2021/03/21 08:48:21;;;;;;;8.88;5.80;;;3.90;56.40;;;;;;4973244;28;20031;-64
2021/03/21 08:50:53;;;;;;;6.90;5.82;;;3.90;56.00;;;;;;4973553;28;20034;-65
2021/03/21 08:53:23;;;;;;;10.48;7.90;;;3.90;56.20;;;;;;4976209;28;20035;-65
2021/03/21 08:56:25;;;;;;;17.90;11.98;;;3.90;56.30;;;;;;4960793;28;20062;-65
2021/03/21 08:59:09;;;;;;;14.55;8.20;;;3.90;56.00;;;;;;4973742;28;20034;-65
2021/03/21 09:01:35;;;;;;;10.63;7.43;;;3.90;56.30;;;;;;4987753;28;20035;-64
2021/03/21 09:04:17;;;;;;;11.50;8.00;;;4.00;56.50;;;;;;4976602;28;20030;-65
2021/03/21 09:06:46;;;;;;;10.48;6.65;;;4.00;56.00;;;;;;4979464;28;20046;-64
2021/03/21 09:09:17;;;;;;;13.65;9.38;;;4.00;56.30;;;;;;4979228;28;20034;-64
2021/03/21 09:11:59;;;;;;;13.43;8.88;;;4.00;56.20;;;;;;4976229;28;20039;-65
2021/03/21 09:14:34;;;;;;;11.95;9.40;;;4.00;56.30;;;;;;4979012;28;20093;-64
2021/03/21 09:17:18;;;;;;;9.18;6.65;;;4.00;56.10;;;;;;4978436;28;20045;-65
2021/03/21 09:19:49;;;;;;;8.38;6.50;;;4.00;56.00;;;;;;4969986;28;20102;-65
2021/03/21 09:22:38;;;;;;;12.80;6.90;;;4.00;56.10;;;;;;4975320;28;20035;-65
2021/03/21 09:25:45;;;;;;;10.88;6.68;;;4.10;56.10;;;;;;4979345;28;20579;-65
2021/03/21 09:28:14;;;;;;;11.93;7.55;;;4.10;56.10;;;;;;4962156;28;20039;-65
2021/03/21 09:30:44;;;;;;;11.90;7.50;;;4.10;56.20;;;;;;4963329;28;20034;-64
2021/03/21 09:33:52;;;;;;;7.45;5.00;;;4.10;56.20;;;;;;4975828;28;20069;-65
2021/03/21 09:36:44;;;;;;;7.97;5.07;;;4.20;55.70;;;;;;4966417;28;20035;-64
2021/03/21 09:39:24;;;;;;;11.52;7.78;;;4.20;55.70;;;;;;4979297;28;20043;-65
2021/03/21 09:41:51;;;;;;;7.47;5.65;;;4.30;55.90;;;;;;4978616;28;20581;-64
2021/03/21 09:44:20;;;;;;;9.82;5.63;;;4.30;55.70;;;;;;4970083;28;20552;-64
2021/03/21 09:46:54;;;;;;;10.73;5.93;;;4.30;55.70;;;;;;4974153;28;20106;-64
2021/03/21 09:49:28;;;;;;;9.45;5.85;;;4.30;55.00;;;;;;4974081;28;20588;-65
2021/03/21 09:52:03;;;;;;;;;;;4.30;55.10;;;;;;4993265;28;20110;-64
2021/03/21 09:55:11;;;;;;;10.27;7.13;;;4.30;55.00;;;;;;4977007;28;20128;-64
2021/03/21 09:58:00;;;;;;;12.43;8.43;;;4.40;55.20;;;;;;4979277;28;20341;-64
2021/03/21 10:00:32;;;;;;;8.07;5.28;;;4.30;55.20;;;;;;4977749;28;20031;-64
2021/03/21 10:03:16;;;;;;;7.82;5.32;;;4.30;55.50;;;;;;4976787;28;20057;-64
2021/03/21 10:06:06;;;;;;;6.60;4.57;;;4.30;55.40;;;;;;4978277;28;20053;-65
2021/03/21 10:08:54;;;;;;;8.70;5.75;;;4.30;55.30;;;;;;4971004;28;20165;-63
2021/03/21 10:11:47;;;;;;;8.95;5.65;;;4.30;55.80;;;;;;4974612;28;20026;-64
2021/03/21 10:14:24;;;;;;;9.43;5.72;;;4.40;55.30;;;;;;4963958;28;20047;-63
2021/03/21 10:16:53;;;;;;;6.25;4.78;;;4.30;55.40;;;;;;4975496;28;20034;-65
2021/03/21 10:19:56;;;;;;;5.93;4.50;;;4.30;56.20;;;;;;4977676;28;20039;-65
2021/03/21 10:22:25;;;;;;;5.15;4.03;;;4.40;55.40;;;;;;4975473;28;20393;-65
2021/03/21 10:24:59;;;;;;;8.32;4.20;;;4.30;55.60;;;;;;4974951;28;20031;-65
2021/03/21 10:27:38;;;;;;;6.60;4.20;;;4.40;55.60;;;;;;4975924;28;20612;-65
2021/03/21 10:30:23;;;;;;;7.15;3.97;;;4.40;55.50;;;;;;4975208;28;20134;-65
2021/03/21 10:32:58;;;;;;;;;;;4.40;55.30;;;;;;4978286;28;20054;-64
2021/03/21 10:35:27;;;;;;;5.90;3.87;;;4.40;55.30;;;;;;4979742;28;19922;-65
2021/03/21 10:38:03;;;;;;;6.28;4.03;;;4.40;55.30;;;;;;4978032;28;20366;-64
2021/03/21 10:40:31;;;;;;;10.90;6.07;;;4.40;55.20;;;;;;4977665;28;20316;-65
2021/03/21 10:43:05;;;;;;;8.88;6.28;;;4.30;55.30;;;;;;4972700;28;22399;-65
2021/03/21 10:45:34;;;;;;;8.40;4.70;;;4.40;55.50;;;;;;4970289;28;20046;-65
2021/03/21 10:48:16;;;;;;;9.25;6.45;;;4.40;55.60;;;;;;4974050;28;20043;-65
2021/03/21 10:51:03;;;;;;;6.15;4.78;;;4.40;55.70;;;;;;4976693;28;20120;-64
2021/03/21 10:53:59;;;;;;;7.88;5.60;;;4.50;55.70;;;;;;4963439;28;20122;-65
2021/03/21 10:56:27;;;;;;;9.50;5.78;;;4.50;55.80;;;;;;4978127;28;20030;-65
2021/03/21 10:59:22;;;;;;;6.55;5.13;;;4.50;56.00;;;;;;4976452;28;20422;-65
2021/03/21 11:02:10;;;;;;;6.22;4.78;;;4.50;55.90;;;;;;4975424;28;20030;-65
2021/03/21 11:04:38;;;;;;;10.20;6.63;;;4.60;56.00;;;;;;4970543;28;20122;-65
2021/03/21 11:07:18;;;;;;;7.70;5.43;;;4.60;56.20;;;;;;4974201;28;20033;-65
2021/03/21 11:09:57;;;;;;;8.88;5.85;;;4.60;56.50;;;;;;4973824;28;20398;-64
2021/03/21 11:12:34;;;;;;;7.53;4.50;;;4.60;56.50;;;;;;4967655;28;20061;-64
2021/03/21 11:15:27;;;;;;;6.40;4.70;;;4.60;56.50;;;;;;4978368;28;20042;-65
2021/03/21 11:17:53;;;;;;;9.88;5.20;;;4.60;56.40;;;;;;4977308;28;20453;-64
2021/03/21 11:20:26;;;;;;;8.90;5.57;;;4.60;56.40;;;;;;4979941;28;20052;-64
2021/03/21 11:22:52;;;;;;;6.38;4.18;;;4.60;56.40;;;;;;4978442;28;20122;-64
2021/03/21 11:25:31;;;;;;;7.78;5.32;;;4.60;56.50;;;;;;4980060;28;20565;-64
2021/03/21 11:27:59;;;;;;;6.35;4.00;;;4.70;55.90;;;;;;4978173;28;20461;-64
2021/03/21 11:30:28;;;;;;;7.72;4.68;;;4.70;55.90;;;;;;4961384;28;20039;-65
2021/03/21 11:33:19;;;;;;;5.43;3.72;;;4.70;56.00;;;;;;4978338;28;20433;-65
2021/03/21 11:35:45;;;;;;;5.95;4.35;;;4.70;55.90;;;;;;4979422;28;20038;-64
2021/03/21 11:38:31;;;;;;;7.55;4.97;;;4.70;56.00;;;;;;4979262;28;20038;-64
2021/03/21 11:41:00;;;;;;;7.22;4.43;;;4.80;55.70;;;;;;4979036;28;20030;-64
2021/03/21 11:43:32;;;;;;;12.90;6.43;;;4.80;55.80;;;;;;4977148;28;20035;-64
2021/03/21 11:46:13;;;;;;;8.82;6.40;;;4.80;56.00;;;;;;4994031;28;20401;-64
2021/03/21 11:48:42;;;;;;;10.05;5.10;;;4.80;56.00;;;;;;4977810;28;20073;-64
2021/03/21 11:51:11;;;;;;;7.05;4.60;;;4.80;56.50;;;;;;4978974;28;20118;-64
2021/03/21 11:53:39;;;;;;;6.50;5.18;;;4.80;55.90;;;;;;4979314;28;20030;-65
2021/03/21 11:56:18;;;;;;;9.07;5.40;;;4.90;56.70;;;;;;4977423;28;20076;-65
2021/03/21 11:59:09;;;;;;;6.88;4.72;;;4.90;56.20;;;;;;4977045;28;20069;-65
2021/03/21 12:01:50;;;;;;;7.43;5.07;;;5.00;56.00;;;;;;4976920;28;20027;-65
2021/03/21 12:04:41;;;;;;;8.15;5.15;;;5.00;56.00;;;;;;4978672;28;20030;-65
2021/03/21 12:07:22;;;;;;;7.18;4.55;;;5.10;55.40;;;;;;4973426;28;20030;-64
2021/03/21 12:09:51;;;;;;;7.30;5.10;;;5.20;55.80;;;;;;4976535;28;20097;-64
2021/03/21 12:12:38;;;;;;;7.63;5.10;;;5.20;55.90;;;;;;4968373;28;20409;-65
2021/03/21 12:15:12;;;;;;;6.93;5.25;;;5.30;55.60;;;;;;4977136;28;20042;-65
2021/03/21 12:17:39;;;;;;;8.00;5.25;;;5.30;55.60;;;;;;4977358;28;20464;-65
2021/03/21 12:20:30;;;;;;;7.88;4.53;;;5.40;55.80;;;;;;4973699;28;20110;-65
2021/03/21 12:22:58;;;;;;;8.45;4.80;;;5.40;55.30;;;;;;4977131;28;20286;-65
2021/03/21 12:25:33;;;;;;;9.63;4.72;;;5.40;55.50;;;;;;4978624;28;20043;-65
2021/03/21 12:28:22;;;;;;;7.80;4.65;;;5.50;55.50;;;;;;4977329;28;20035;-64
2021/03/21 12:30:59;;;;;;;13.75;6.47;;;5.50;55.20;;;;;;4973789;28;20513;-65
2021/03/21 12:33:32;;;;;;;18.73;11.52;;;5.60;55.10;;;;;;4973462;28;20703;-65
2021/03/21 12:36:04;;;;;;;7.70;5.30;;;5.60;55.30;;;;;;4977028;28;20065;-65
2021/03/21 12:38:41;;;;;;;7.82;5.30;;;5.70;54.80;;;;;;4976787;28;20035;-65
2021/03/21 12:41:34;;;;;;;8.35;5.43;;;5.70;54.30;;;;;;4977705;28;20130;-64
2021/03/21 12:44:17;;;;;;;8.52;5.55;;;5.70;54.30;;;;;;4978039;28;20394;-65
2021/03/21 12:46:54;;;;;;;6.10;4.90;;;5.80;54.70;;;;;;4976803;28;20126;-65
2021/03/21 12:49:38;;;;;;;7.25;5.25;;;5.80;55.00;;;;;;4978488;28;20039;-65
2021/03/21 12:52:35;;;;;;;8.73;5.15;;;5.90;54.60;;;;;;4978711;28;20027;-65
2021/03/21 12:55:03;;;;;;;7.63;4.78;;;5.90;54.50;;;;;;4977619;28;20130;-65
2021/03/21 12:57:29;;;;;;;8.38;5.47;;;5.90;54.90;;;;;;4976812;28;20517;-66
2021/03/21 12:59:58;;;;;;;5.72;4.65;;;5.90;54.90;;;;;;4977837;28;20082;-65
2021/03/21 13:02:31;;;;;;;7.50;5.25;;;6.00;54.90;;;;;;4976902;28;20030;-65
2021/03/21 13:05:06;;;;;;;6.68;4.45;;;6.00;54.70;;;;;;4978049;28;20371;-65
2021/03/21 13:07:34;;;;;;;8.75;5.30;;;6.00;54.70;;;;;;4977999;28;20031;-65
2021/03/21 13:10:00;;;;;;;6.45;5.05;;;6.10;54.50;;;;;;4977877;28;20039;-64
2021/03/21 13:12:26;;;;;;;6.57;5.05;;;6.10;54.80;;;;;;4970305;28;20041;-66
2021/03/21 13:14:54;;;;;;;7.57;5.43;;;6.10;54.70;;;;;;4977522;28;20139;-65
2021/03/21 13:17:21;;;;;;;6.43;5.18;;;6.20;54.70;;;;;;4973533;28;20509;-65
2021/03/21 13:19:46;;;;;;;8.93;5.95;;;6.20;54.70;;;;;;4978297;28;20440;-64
2021/03/21 13:22:12;;;;;;;8.30;5.47;;;6.30;54.70;;;;;;4976207;28;20031;-64
2021/03/21 13:24:43;;;;;;;10.10;6.50;;;6.30;54.40;;;;;;4977565;28;20038;-65
2021/03/21 13:27:12;;;;;;;11.10;6.40;;;6.30;54.50;;;;;;4976423;28;20035;-64
2021/03/21 13:29:40;;;;;;;10.20;6.38;;;6.30;54.30;;;;;;4977693;28;20040;-65
2021/03/21 13:32:06;;;;;;;8.45;5.50;;;6.40;54.50;;;;;;4978030;28;20030;-65
2021/03/21 13:34:32;;;;;;;6.88;5.20;;;6.40;54.70;;;;;;4967419;28;20097;-64
2021/03/21 13:37:01;;;;;;;8.00;5.20;;;6.40;54.70;;;;;;4974483;28;20039;-64
2021/03/21 13:39:29;;;;;;;6.93;4.90;;;6.40;54.70;;;;;;4974544;28;20109;-65
2021/03/21 13:41:55;;;;;;;8.40;5.63;;;6.40;54.60;;;;;;4973943;28;20534;-65
2021/03/21 13:44:23;;;;;;;6.90;4.68;;;6.40;54.40;;;;;;4973403;28;20093;-67
2021/03/21 13:46:51;;;;;;;12.32;5.75;;;6.50;54.60;;;;;;4972408;28;20038;-64
2021/03/21 13:49:19;;;;;;;8.85;5.72;;;6.50;54.90;;;;;;4972931;28;20037;-65
2021/03/21 13:51:45;;;;;;;9.02;6.60;;;6.60;54.80;;;;;;4978320;28;20030;-65
2021/03/21 13:54:13;;;;;;;8.27;5.50;;;6.60;54.60;;;;;;4978882;28;20111;-65
2021/03/21 13:56:41;;;;;;;7.85;5.65;;;6.60;54.60;;;;;;4976377;28;20043;-64
2021/03/21 13:59:07;;;;;;;7.88;5.40;;;6.60;54.50;;;;;;4974285;28;20031;-65